Time;durP1;ratioP1;P1;durP2;ratioP2;P2;SDS_P1;SDS_P2;PMS_P1;PMS_P2;Temp;Humidity;BMP_temperature;BMP_pressure;BME280_temperature;BME280_humidity;BME280_pressure;Samples;Min_cycle;Max_cycle;Signal;HPM_P1;HPM_P2
2023/06/27 00:01:14;;;;;;;10.23;2.90;;;22.60;1.00;;;;;;5047752;28;20211;-80
2023/06/27 00:03:40;;;;;;;6.87;2.93;;;22.70;1.00;;;;;;5051768;28;20248;-80
2023/06/27 00:06:05;;;;;;;7.27;2.83;;;22.70;1.00;;;;;;5053422;28;20181;-83
2023/06/27 00:08:34;;;;;;;5.20;3.20;;;22.60;1.00;;;;;;5052355;28;20520;-81
2023/06/27 00:11:00;;;;;;;18.33;2.90;;;22.70;1.00;;;;;;5052059;28;20204;-81
2023/06/27 00:13:26;;;;;;;4.70;2.47;;;22.60;1.00;;;;;;5057812;28;20438;-80
2023/06/27 00:15:52;;;;;;;6.90;2.60;;;22.60;1.00;;;;;;5048612;28;20184;-80
2023/06/27 00:18:22;;;;;;;4.80;2.80;;;22.60;1.00;;;;;;5050094;28;20423;-79
2023/06/27 00:20:48;;;;;;;5.87;2.63;;;22.60;1.00;;;;;;5048993;28;20473;-81
2023/06/27 00:23:24;;;;;;;8.17;2.90;;;22.60;1.00;;;;;;5050491;28;20850;-80
2023/06/27 00:25:50;;;;;;;6.90;2.73;;;22.50;1.00;;;;;;5048356;28;20500;-81
2023/06/27 00:28:16;;;;;;;4.90;2.60;;;22.50;1.00;;;;;;5049729;28;20465;-81
2023/06/27 00:30:42;;;;;;;5.77;2.70;;;22.50;1.00;;;;;;5050124;28;20525;-82
2023/06/27 00:33:11;;;;;;;6.60;3.23;;;22.60;1.00;;;;;;5039736;28;20185;-80
2023/06/27 00:35:38;;;;;;;5.20;2.33;;;22.60;1.00;;;;;;5050201;28;20176;-80
2023/06/27 00:38:04;;;;;;;6.10;2.57;;;22.40;1.00;;;;;;5052949;28;20932;-83
2023/06/27 00:40:29;;;;;;;6.47;2.40;;;22.30;1.00;;;;;;5054411;28;20466;-81
2023/06/27 00:42:55;;;;;;;6.37;2.97;;;22.30;1.00;;;;;;5054438;28;20176;-81
2023/06/27 00:45:23;;;;;;;6.40;3.13;;;22.30;1.00;;;;;;5046508;28;20590;-81
2023/06/27 00:47:49;;;;;;;6.77;2.67;;;22.20;1.00;;;;;;5053034;28;20250;-80
2023/06/27 00:50:15;;;;;;;4.30;2.23;;;22.20;1.00;;;;;;5049511;28;20439;-81
2023/06/27 00:52:41;;;;;;;7.60;2.63;;;22.30;1.00;;;;;;5054101;28;20482;-81
2023/06/27 00:55:08;;;;;;;6.90;2.70;;;22.10;1.00;;;;;;5050443;28;20272;-79
2023/06/27 00:57:34;;;;;;;5.50;2.83;;;22.10;1.00;;;;;;5049992;28;20454;-79
2023/06/27 01:00:00;;;;;;;6.03;2.80;;;22.10;1.00;;;;;;5049749;28;20426;-81
2023/06/27 01:02:26;;;;;;;8.70;2.90;;;22.10;1.00;;;;;;5047363;28;20177;-79
2023/06/27 01:04:52;;;;;;;9.33;2.60;;;22.10;1.00;;;;;;5047546;28;20191;-80
2023/06/27 01:07:27;;;;;;;7.20;2.70;;;22.10;1.00;;;;;;5048062;28;20188;-79
2023/06/27 01:09:59;;;;;;;4.40;2.50;;;22.10;1.00;;;;;;5048072;28;20823;-80
2023/06/27 01:12:35;;;;;;;7.60;2.77;;;22.00;1.00;;;;;;5045592;28;20573;-80
2023/06/27 01:15:03;;;;;;;6.50;2.50;;;22.00;1.00;;;;;;5046028;28;20430;-79
2023/06/27 01:17:32;;;;;;;5.47;2.67;;;22.00;1.00;;;;;;5043212;28;20817;-79
2023/06/27 01:19:59;;;;;;;3.50;2.20;;;;;;;;;;5047623;28;20454;-80
2023/06/27 01:22:30;;;;;;;5.77;2.50;;;21.80;1.00;;;;;;5047314;28;20412;-80
2023/06/27 01:24:56;;;;;;;4.73;2.23;;;21.80;1.00;;;;;;5046058;28;20438;-79
2023/06/27 01:27:22;;;;;;;9.10;2.77;;;21.80;1.00;;;;;;5048927;28;20434;-78
2023/06/27 01:29:48;;;;;;;6.20;2.57;;;21.80;1.00;;;;;;5049071;28;20593;-80
2023/06/27 01:32:27;;;;;;;5.37;2.80;;;21.80;1.00;;;;;;5043451;28;20220;-79
2023/06/27 01:35:12;;;;;;;6.27;3.20;;;21.70;1.00;;;;;;5047865;28;20439;-79
2023/06/27 01:37:50;;;;;;;7.90;2.77;;;21.60;1.00;;;;;;5049359;28;20493;-80
2023/06/27 01:40:19;;;;;;;8.63;2.90;;;21.60;1.00;;;;;;5049119;28;20403;-79
2023/06/27 01:42:50;;;;;;;4.10;2.50;;;21.60;1.00;;;;;;5047787;28;20480;-78
2023/06/27 01:45:17;;;;;;;8.80;2.73;;;21.60;1.00;;;;;;5050027;28;20492;-80
2023/06/27 01:47:43;;;;;;;4.80;2.77;;;21.70;1.00;;;;;;5051781;28;20427;-79
2023/06/27 01:50:10;;;;;;;7.77;2.83;;;21.70;1.00;;;;;;5049874;28;20594;-79
2023/06/27 01:52:36;;;;;;;10.57;2.73;;;21.60;1.00;;;;;;5051492;28;20971;-79
2023/06/27 01:55:02;;;;;;;5.17;2.77;;;21.60;1.00;;;;;;5052470;28;20458;-80
2023/06/27 01:57:28;;;;;;;5.23;2.47;;;21.60;1.00;;;;;;5050748;28;20539;-79
2023/06/27 01:59:53;;;;;;;5.47;2.70;;;21.60;1.00;;;;;;5051435;28;20180;-79
2023/06/27 02:02:19;;;;;;;5.17;2.73;;;23.50;1.00;;;;;;5052042;28;20931;-79
2023/06/27 02:04:46;;;;;;;5.60;2.60;;;21.40;1.00;;;;;;5051564;28;20180;-80
2023/06/27 02:07:12;;;;;;;4.90;2.93;;;21.30;1.00;;;;;;5052387;28;20659;-79
2023/06/27 02:09:37;;;;;;;5.40;2.90;;;21.30;1.00;;;;;;5052069;28;20683;-79
2023/06/27 02:12:04;;;;;;;6.17;3.00;;;21.20;1.00;;;;;;5051122;28;20211;-78
2023/06/27 02:14:30;;;;;;;5.70;3.13;;;21.20;1.00;;;;;;5052596;28;20219;-79
2023/06/27 02:16:56;;;;;;;6.43;2.70;;;21.20;1.00;;;;;;5044864;28;20900;-78
2023/06/27 02:19:22;;;;;;;4.23;2.50;;;21.20;1.00;;;;;;5045951;28;20419;-77
2023/06/27 02:21:50;;;;;;;6.23;2.87;;;21.20;1.00;;;;;;5052005;28;20721;-78
2023/06/27 02:24:16;;;;;;;8.33;3.00;;;21.40;1.00;;;;;;5052743;28;20407;-78
2023/06/27 02:26:42;;;;;;;12.33;2.87;;;21.10;1.00;;;;;;5052592;28;20419;-80
2023/06/27 02:29:08;;;;;;;4.87;2.60;;;21.00;1.00;;;;;;5051099;28;20943;-79
2023/06/27 02:31:33;;;;;;;8.67;3.03;;;21.00;1.00;;;;;;5050228;28;20443;-80
2023/06/27 02:34:00;;;;;;;6.50;3.27;;;20.90;1.00;;;;;;5051162;28;20251;-79
2023/06/27 02:36:27;;;;;;;4.10;2.70;;;20.90;1.00;;;;;;5050809;28;20200;-80
2023/06/27 02:38:55;;;;;;;7.93;3.10;;;20.80;1.00;;;;;;5052280;28;20445;-79
2023/06/27 02:41:22;;;;;;;7.33;3.83;;;20.70;1.00;;;;;;5050247;28;20439;-79
2023/06/27 02:43:47;;;;;;;7.27;3.30;;;20.50;1.00;;;;;;5044211;28;20423;-77
2023/06/27 02:46:13;;;;;;;6.70;2.93;;;20.40;1.00;;;;;;5050800;28;20435;-78
2023/06/27 02:48:39;;;;;;;6.83;3.00;;;20.40;1.00;;;;;;5049893;28;20204;-78
2023/06/27 02:51:04;;;;;;;8.43;3.27;;;20.20;1.00;;;;;;5049444;28;20250;-79
2023/06/27 02:53:30;;;;;;;7.10;3.33;;;20.30;1.00;;;;;;5051629;28;20238;-79
2023/06/27 02:55:57;;;;;;;4.77;3.10;;;20.10;1.00;;;;;;5045569;28;20184;-79
2023/06/27 02:58:23;;;;;;;10.10;3.00;;;20.10;1.00;;;;;;5050814;28;20222;-79
2023/06/27 03:00:49;;;;;;;5.90;3.20;;;20.20;1.00;;;;;;5047810;28;20840;-80
2023/06/27 03:03:14;;;;;;;6.63;2.70;;;20.50;1.00;;;;;;5051721;28;20172;-79
2023/06/27 03:05:40;;;;;;;4.80;2.97;;;20.30;1.00;;;;;;5049972;28;20211;-79
2023/06/27 03:08:05;;;;;;;5.57;2.97;;;20.40;1.00;;;;;;5051241;28;20515;-79
2023/06/27 03:10:31;;;;;;;10.13;5.07;;;21.90;1.00;;;;;;5049781;28;20220;-80
2023/06/27 03:12:56;;;;;;;9.30;4.90;;;20.30;1.00;;;;;;5049850;28;20643;-79
2023/06/27 03:15:22;;;;;;;9.47;3.40;;;20.30;1.00;;;;;;5047624;28;20279;-79
2023/06/27 03:17:47;;;;;;;5.47;2.80;;;20.30;1.00;;;;;;5050948;28;20209;-79
2023/06/27 03:20:13;;;;;;;6.63;3.30;;;20.10;1.00;;;;;;5049937;28;20181;-79
2023/06/27 03:22:38;;;;;;;5.90;2.93;;;20.20;1.00;;;;;;5050058;28;20499;-79
2023/06/27 03:25:04;;;;;;;6.03;2.90;;;20.10;1.00;;;;;;5051458;28;20252;-80
2023/06/27 03:27:30;;;;;;;9.03;3.70;;;20.00;1.00;;;;;;5050258;28;20181;-80
2023/06/27 03:29:55;;;;;;;5.13;2.90;;;20.00;1.00;;;;;;5050996;28;20944;-79
2023/06/27 03:32:21;;;;;;;6.17;3.27;;;20.00;1.00;;;;;;5046103;28;20215;-79
2023/06/27 03:34:47;;;;;;;15.83;3.43;;;20.00;1.00;;;;;;5050855;28;20270;-76
2023/06/27 03:37:12;;;;;;;8.00;3.20;;;20.00;1.00;;;;;;5051478;28;20267;-79
2023/06/27 03:39:38;;;;;;;7.23;3.40;;;20.00;1.00;;;;;;5052042;28;20227;-79
2023/06/27 03:42:05;;;;;;;5.97;3.10;;;20.00;1.00;;;;;;5051278;28;20543;-79
2023/06/27 03:44:31;;;;;;;6.37;2.97;;;20.00;1.00;;;;;;5043676;28;20638;-78
2023/06/27 03:46:57;;;;;;;7.70;2.90;;;20.30;1.00;;;;;;5041132;28;20494;-81
2023/06/27 03:49:22;;;;;;;6.37;3.50;;;20.20;1.00;;;;;;5051848;28;20908;-77
2023/06/27 03:51:48;;;;;;;8.63;3.30;;;20.20;1.00;;;;;;5051157;28;20207;-80
2023/06/27 03:54:13;;;;;;;8.73;3.40;;;20.10;1.00;;;;;;5051408;28;20543;-79
2023/06/27 03:56:39;;;;;;;7.30;3.53;;;20.10;1.00;;;;;;5050045;28;20196;-80
2023/06/27 03:59:04;;;;;;;7.10;2.77;;;20.10;1.00;;;;;;5048864;28;20182;-79
2023/06/27 04:01:30;;;;;;;6.90;2.90;;;21.80;1.00;;;;;;5044301;28;20196;-79
2023/06/27 04:03:55;;;;;;;6.20;3.03;;;20.00;1.00;;;;;;5047477;28;20184;-80
2023/06/27 04:06:21;;;;;;;4.60;2.80;;;20.00;1.00;;;;;;5050479;28;20671;-79
2023/06/27 04:08:47;;;;;;;7.40;3.10;;;20.00;1.00;;;;;;5050232;28;20177;-77
2023/06/27 04:11:12;;;;;;;5.73;3.10;;;20.10;1.00;;;;;;5049089;28;20554;-79
2023/06/27 04:13:38;;;;;;;5.00;2.60;;;20.10;1.00;;;;;;5049853;28;20181;-80
2023/06/27 04:16:04;;;;;;;10.90;3.23;;;20.10;1.00;;;;;;5049468;28;20762;-79
2023/06/27 04:18:30;;;;;;;6.33;3.20;;;20.20;1.00;;;;;;5051126;28;20184;-80
2023/06/27 04:20:57;;;;;;;5.00;3.10;;;20.20;1.00;;;;;;5050600;28;20439;-80
2023/06/27 04:23:22;;;;;;;11.93;3.47;;;20.10;1.00;;;;;;5049470;28;20415;-81
2023/06/27 04:26:02;;;;;;;6.17;3.50;;;20.00;1.00;;;;;;5049590;28;20473;-78
2023/06/27 04:28:29;;;;;;;4.87;3.10;;;20.00;1.00;;;;;;5044852;28;20164;-80
2023/06/27 04:30:54;;;;;;;7.63;3.33;;;20.00;1.00;;;;;;5049148;28;20434;-79
2023/06/27 04:33:20;;;;;;;7.50;3.13;;;20.00;1.00;;;;;;5045407;28;20465;-78
2023/06/27 04:35:46;;;;;;;6.03;3.37;;;20.00;1.00;;;;;;5046919;28;20176;-79
2023/06/27 04:38:14;;;;;;;10.30;3.73;;;20.10;1.00;;;;;;5048427;28;20176;-79
2023/06/27 04:40:41;;;;;;;4.87;2.90;;;20.00;1.00;;;;;;5047777;28;20442;-80
2023/06/27 04:43:07;;;;;;;4.60;2.90;;;19.90;1.00;;;;;;5048592;28;20868;-79
2023/06/27 04:45:32;;;;;;;6.87;3.70;;;19.90;1.00;;;;;;5047302;28;20431;-79
2023/06/27 04:47:58;;;;;;;8.47;3.53;;;19.90;1.00;;;;;;5049683;28;20200;-79
2023/06/27 04:50:23;;;;;;;7.40;3.40;;;19.90;1.00;;;;;;5047183;28;20682;-79
2023/06/27 04:52:49;;;;;;;8.17;3.40;;;20.10;1.00;;;;;;5048249;28;20302;-79
2023/06/27 04:55:15;;;;;;;6.97;3.00;;;20.00;1.00;;;;;;5048884;28;20264;-79
2023/06/27 04:57:41;;;;;;;6.57;3.37;;;20.00;1.00;;;;;;5048646;28;20200;-80
2023/06/27 05:00:10;;;;;;;9.50;3.37;;;20.10;1.00;;;;;;5048268;28;20439;-79
2023/06/27 05:02:36;;;;;;;7.60;3.03;;;20.10;1.00;;;;;;5046907;28;20239;-79
2023/06/27 05:05:02;;;;;;;7.70;3.00;;;20.20;1.00;;;;;;5048002;28;20928;-79
2023/06/27 05:07:28;;;;;;;5.77;3.33;;;20.30;1.00;;;;;;5047911;28;20446;-79
2023/06/27 05:09:53;;;;;;;7.53;3.50;;;20.40;1.00;;;;;;5047193;28;20435;-78
2023/06/27 05:12:19;;;;;;;7.63;3.70;;;20.50;1.00;;;;;;5048385;28;20204;-79
2023/06/27 05:14:45;;;;;;;7.80;4.03;;;20.70;1.00;;;;;;5040670;28;20337;-80
2023/06/27 05:17:10;;;;;;;10.90;4.50;;;20.70;1.00;;;;;;5045314;28;21016;-80
2023/06/27 05:19:36;;;;;;;8.13;4.40;;;20.70;1.00;;;;;;5046459;28;20177;-79
2023/06/27 05:22:02;;;;;;;10.97;4.40;;;20.70;1.00;;;;;;5046538;28;20608;-80
2023/06/27 05:24:27;;;;;;;11.93;4.57;;;20.70;1.00;;;;;;5048640;28;20189;-78
2023/06/27 05:26:53;;;;;;;9.03;3.93;;;20.80;1.00;;;;;;5047828;28;20801;-79
2023/06/27 05:29:18;;;;;;;5.37;3.50;;;20.90;1.00;;;;;;5048299;28;20176;-77
2023/06/27 05:31:44;;;;;;;10.23;3.97;;;21.00;1.00;;;;;;5061207;28;20208;-79
2023/06/27 05:34:12;;;;;;;11.60;3.50;;;21.10;1.00;;;;;;5047796;28;20525;-79
2023/06/27 05:36:37;;;;;;;8.03;3.30;;;21.20;1.00;;;;;;5047098;28;20208;-79
2023/06/27 05:39:03;;;;;;;7.43;3.10;;;21.30;1.00;;;;;;5046557;28;20980;-79
2023/06/27 05:41:30;;;;;;;5.33;3.00;;;21.40;1.00;;;;;;5047710;28;20188;-79
2023/06/27 05:43:55;;;;;;;6.73;2.80;;;21.40;1.00;;;;;;5049240;28;20585;-78
2023/06/27 05:46:21;;;;;;;7.93;3.00;;;21.40;1.00;;;;;;5053540;28;20590;-80
2023/06/27 05:48:47;;;;;;;6.50;3.00;;;21.40;1.00;;;;;;5050132;28;20188;-80
2023/06/27 05:51:12;;;;;;;7.67;3.27;;;21.40;1.00;;;;;;5040901;28;20605;-79
2023/06/27 05:53:39;;;;;;;8.43;2.90;;;21.40;1.00;;;;;;5049803;28;20185;-79
2023/06/27 05:56:05;;;;;;;6.03;2.93;;;21.40;1.00;;;;;;5048370;28;20176;-78
2023/06/27 05:58:31;;;;;;;6.50;2.83;;;21.50;1.00;;;;;;5053404;28;20423;-79
2023/06/27 06:00:56;;;;;;;5.07;2.83;;;21.50;1.00;;;;;;5044978;28;20278;-79
2023/06/27 06:03:22;;;;;;;9.23;2.80;;;21.60;1.00;;;;;;5052366;28;20447;-80
2023/06/27 06:05:48;;;;;;;8.60;3.33;;;21.50;1.00;;;;;;5044591;28;20662;-76
2023/06/27 06:08:13;;;;;;;9.27;3.10;;;21.60;1.00;;;;;;5044255;28;20550;-78
2023/06/27 06:10:39;;;;;;;4.70;2.63;;;21.70;1.00;;;;;;5046187;28;20541;-78
2023/06/27 06:13:04;;;;;;;5.50;3.00;;;22.00;1.00;;;;;;5042842;28;20568;-78
2023/06/27 06:15:30;;;;;;;4.77;2.77;;;21.80;1.00;;;;;;5044884;28;20188;-80
2023/06/27 06:17:55;;;;;;;8.00;3.00;;;22.00;1.00;;;;;;5046847;28;20209;-77
2023/06/27 06:20:21;;;;;;;4.77;2.70;;;21.70;1.00;;;;;;5045178;28;20271;-78
2023/06/27 06:22:46;;;;;;;5.73;2.50;;;21.70;1.00;;;;;;5045389;28;20173;-78
2023/06/27 06:25:12;;;;;;;6.10;3.00;;;21.70;1.00;;;;;;5045266;28;20180;-77
2023/06/27 06:27:37;;;;;;;9.80;2.73;;;21.90;1.00;;;;;;5047121;28;20181;-79
2023/06/27 06:30:03;;;;;;;7.80;2.70;;;22.20;1.00;;;;;;5046315;28;20258;-79
2023/06/27 06:32:29;;;;;;;7.87;3.17;;;22.10;1.00;;;;;;5047076;28;20593;-79
2023/06/27 06:34:54;;;;;;;6.80;2.90;;;22.20;1.00;;;;;;5049076;28;20181;-78
2023/06/27 06:37:20;;;;;;;7.20;3.40;;;22.30;1.00;;;;;;5051721;28;20258;-77
2023/06/27 06:39:46;;;;;;;7.27;3.07;;;22.50;1.00;;;;;;5049762;28;20245;-79
2023/06/27 06:42:11;;;;;;;5.60;2.80;;;22.40;1.00;;;;;;5048034;28;20205;-79
2023/06/27 06:44:37;;;;;;;6.73;2.80;;;22.50;1.00;;;;;;5049457;28;20192;-77
2023/06/27 06:47:03;;;;;;;5.60;2.80;;;22.80;1.00;;;;;;5050657;28;20210;-78
2023/06/27 06:49:29;;;;;;;7.50;3.40;;;23.00;1.00;;;;;;5048113;28;20259;-78
2023/06/27 06:51:54;;;;;;;9.67;3.10;;;23.20;1.00;;;;;;5018060;28;20451;-77
2023/06/27 06:54:20;;;;;;;5.20;2.60;;;23.30;1.00;;;;;;5040920;28;20184;-80
2023/06/27 06:56:45;;;;;;;5.07;2.67;;;23.40;1.00;;;;;;5042540;28;20222;-75
2023/06/27 06:59:11;;;;;;;7.37;2.93;;;23.50;1.00;;;;;;5047318;28;20211;-76
2023/06/27 07:01:36;;;;;;;4.43;2.80;;;23.50;1.00;;;;;;5044880;28;20204;-78
2023/06/27 07:04:02;;;;;;;6.90;2.80;;;23.60;1.00;;;;;;5049173;28;20555;-75
2023/06/27 07:06:28;;;;;;;4.83;2.50;;;23.50;1.00;;;;;;5049108;28;20176;-74
2023/06/27 07:08:54;;;;;;;6.47;3.00;;;23.50;1.00;;;;;;5048945;28;20199;-75
2023/06/27 07:11:20;;;;;;;4.07;2.60;;;23.40;1.00;;;;;;5041644;28;21039;-76
2023/06/27 07:13:45;;;;;;;6.90;2.80;;;23.60;1.00;;;;;;5049598;28;20658;-77
2023/06/27 07:16:11;;;;;;;6.57;2.80;;;23.50;1.00;;;;;;5045565;28;22059;-77
2023/06/27 07:18:36;;;;;;;6.63;3.03;;;23.30;1.00;;;;;;5038878;28;20185;-77
2023/06/27 07:21:02;;;;;;;5.30;2.60;;;23.60;1.00;;;;;;5046285;28;20727;-76
2023/06/27 07:23:27;;;;;;;4.40;2.67;;;23.60;1.00;;;;;;5048558;28;20181;-76
2023/06/27 07:25:53;;;;;;;8.33;2.80;;;23.80;1.00;;;;;;5048704;28;20275;-78
2023/06/27 07:28:20;;;;;;;9.40;2.80;;;23.90;1.00;;;;;;5048143;28;20748;-76
2023/06/27 07:30:46;;;;;;;6.10;3.00;;;24.20;1.00;;;;;;5048501;28;20296;-77
2023/06/27 07:33:12;;;;;;;4.20;2.40;;;24.30;1.00;;;;;;5048508;28;21248;-75
2023/06/27 07:35:38;;;;;;;4.47;2.43;;;24.40;1.00;;;;;;5046914;28;20176;-76
2023/06/27 07:38:03;;;;;;;7.67;2.60;;;24.40;1.00;;;;;;5048594;28;20474;-74
2023/06/27 07:40:29;;;;;;;5.83;2.73;;;24.50;1.00;;;;;;5048341;28;20288;-75
2023/06/27 07:42:54;;;;;;;7.17;2.73;;;25.00;1.00;;;;;;5048240;28;20558;-76
2023/06/27 07:45:20;;;;;;;5.60;2.60;;;25.00;1.00;;;;;;5045661;28;20211;-77
2023/06/27 07:47:45;;;;;;;6.27;2.47;;;25.20;1.00;;;;;;5045261;28;20209;-75
2023/06/27 07:50:11;;;;;;;7.87;2.70;;;25.70;1.00;;;;;;5041525;28;20207;-75
2023/06/27 07:52:36;;;;;;;4.60;2.20;;;25.70;1.00;;;;;;5044299;28;20216;-78
2023/06/27 07:55:02;;;;;;;5.03;2.10;;;26.20;1.00;;;;;;5047349;28;20196;-75
2023/06/27 07:57:28;;;;;;;10.90;2.70;;;26.20;1.00;;;;;;5048881;28;20208;-77
2023/06/27 07:59:53;;;;;;;9.30;2.50;;;26.20;1.00;;;;;;5046531;28;20177;-76
2023/06/27 08:02:18;;;;;;;8.50;2.57;;;26.00;1.00;;;;;;5046383;28;20294;-75
2023/06/27 08:04:44;;;;;;;8.83;3.10;;;26.30;1.00;;;;;;5046980;28;20180;-77
2023/06/27 08:07:10;;;;;;;7.83;2.50;;;26.50;1.00;;;;;;5047577;28;20181;-77
2023/06/27 08:09:35;;;;;;;4.10;2.47;;;26.70;1.00;;;;;;5041781;28;20243;-78
2023/06/27 08:12:01;;;;;;;6.10;2.67;;;26.80;1.00;;;;;;5042439;28;20217;-80
2023/06/27 08:14:27;;;;;;;5.93;2.57;;;26.60;1.00;;;;;;5049235;28;20185;-75
2023/06/27 08:16:53;;;;;;;7.70;2.60;;;26.70;1.00;;;;;;5046335;28;20208;-77
2023/06/27 08:19:18;;;;;;;7.10;2.90;;;27.00;1.00;;;;;;5049029;28;20554;-77
2023/06/27 08:21:44;;;;;;;4.00;2.43;;;27.50;1.00;;;;;;5048653;28;20691;-78
2023/06/27 08:24:09;;;;;;;7.13;2.83;;;27.20;1.00;;;;;;5047062;28;20172;-75
2023/06/27 08:26:35;;;;;;;7.20;2.40;;;27.10;1.00;;;;;;5047880;28;20180;-77
2023/06/27 08:29:00;;;;;;;4.77;2.50;;;27.00;1.00;;;;;;5046884;28;20657;-78
2023/06/27 08:31:26;;;;;;;5.37;2.43;;;27.20;1.00;;;;;;5044455;28;20225;-76
2023/06/27 08:33:51;;;;;;;4.13;2.20;;;27.70;1.00;;;;;;5045339;28;20267;-77
2023/06/27 08:36:17;;;;;;;3.80;2.20;;;27.90;1.00;;;;;;5045307;28;20728;-78
2023/06/27 08:38:42;;;;;;;4.50;2.00;;;27.60;1.00;;;;;;5048338;28;20188;-75
2023/06/27 08:41:09;;;;;;;4.30;2.17;;;27.50;1.00;;;;;;5047354;28;20275;-75
2023/06/27 08:43:35;;;;;;;4.13;2.40;;;27.40;1.00;;;;;;5059923;22;20257;-75
2023/06/27 08:46:03;;;;;;;4.93;2.27;;;27.50;1.00;;;;;;5022733;28;20219;-74
2023/06/27 08:48:28;;;;;;;4.70;2.40;;;27.60;1.00;;;;;;5027289;28;20178;-74
2023/06/27 08:50:57;;;;;;;6.30;2.80;;;27.80;1.00;;;;;;5021299;28;20197;-73
2023/06/27 08:53:25;;;;;;;4.30;2.20;;;27.80;1.00;;;;;;5025543;28;20201;-74
2023/06/27 08:56:10;;;;;;;5.30;2.50;;;28.20;1.00;;;;;;5026211;28;20192;-73
2023/06/27 08:58:51;;;;;;;6.50;2.63;;;28.30;1.00;;;;;;5025603;28;20204;-75
2023/06/27 09:01:17;;;;;;;4.20;2.20;;;28.50;1.00;;;;;;5027057;28;20260;-74
2023/06/27 09:03:42;;;;;;;5.77;2.43;;;28.30;1.00;;;;;;5027354;28;20579;-75
2023/06/27 09:06:08;;;;;;;5.30;2.37;;;28.30;1.00;;;;;;5025390;28;20734;-75
2023/06/27 09:08:34;;;;;;;6.17;2.73;;;28.60;1.00;;;;;;5028791;28;20185;-75
2023/06/27 09:11:01;;;;;;;5.70;2.40;;;28.50;1.00;;;;;;5027371;28;20247;-75
2023/06/27 09:13:27;;;;;;;4.50;2.67;;;28.10;1.00;;;;;;5027346;28;20205;-76
2023/06/27 09:15:53;;;;;;;6.73;2.57;;;28.70;1.00;;;;;;5025023;28;20186;-75
2023/06/27 09:18:18;;;;;;;7.90;2.47;;;29.90;1.00;;;;;;5026940;28;20216;-76
2023/06/27 09:20:47;;;;;;;4.28;2.33;;;30.20;1.00;;;;;;5025879;28;20185;-75
2023/06/27 09:23:14;;;;;;;3.88;2.15;;;30.70;1.00;;;;;;5023345;28;20596;-77
2023/06/27 09:25:39;;;;;;;4.65;2.22;;;30.90;1.00;;;;;;5026967;28;20206;-75
2023/06/27 09:28:16;;;;;;;5.13;2.47;;;31.40;1.00;;;;;;5026940;28;20239;-75
2023/06/27 09:30:54;;;;;;;7.25;2.75;;;31.40;1.00;;;;;;5023618;28;20600;-75
2023/06/27 09:33:19;;;;;;;4.32;2.63;;;30.50;1.00;;;;;;5021274;28;20291;-76
2023/06/27 09:35:45;;;;;;;5.28;2.60;;;30.70;1.00;;;;;;5027101;28;20265;-74
2023/06/27 09:38:11;;;;;;;5.38;2.60;;;30.50;1.00;;;;;;5021079;28;20266;-74
2023/06/27 09:40:37;;;;;;;9.60;2.78;;;30.10;1.00;;;;;;5027782;28;20183;-74
2023/06/27 09:43:05;;;;;;;5.43;2.92;;;29.00;1.00;;;;;;5024273;28;20659;-75
2023/06/27 09:45:31;;;;;;;5.85;2.60;;;28.90;1.00;;;;;;5023729;28;20631;-74
2023/06/27 09:47:58;;;;;;;5.18;2.45;;;28.80;1.00;;;;;;5025160;28;20268;-76
2023/06/27 09:50:28;;;;;;;5.90;2.60;;;28.70;1.00;;;;;;5027854;28;20184;-79
2023/06/27 09:53:02;;;;;;;4.25;2.50;;;28.80;1.00;;;;;;5022460;28;20181;-76
2023/06/27 09:55:28;;;;;;;6.87;2.63;;;29.00;1.00;;;;;;5028144;28;20188;-74
2023/06/27 09:57:54;;;;;;;5.43;2.70;;;29.40;1.00;;;;;;5023071;28;20231;-75
2023/06/27 10:00:21;;;;;;;7.50;2.50;;;30.30;1.00;;;;;;5028908;28;20205;-75
2023/06/27 10:02:48;;;;;;;5.93;2.72;;;30.80;1.00;;;;;;5027632;28;20582;-76
2023/06/27 10:05:19;;;;;;;8.50;2.80;;;31.10;1.00;;;;;;5024263;28;20206;-75
2023/06/27 10:07:46;;;;;;;5.50;2.50;;;31.30;1.00;;;;;;5025530;28;20181;-76
2023/06/27 10:10:13;;;;;;;8.77;2.70;;;31.70;1.00;;;;;;5028303;28;20556;-76
2023/06/27 10:12:39;;;;;;;9.35;2.63;;;31.40;1.00;;;;;;5032149;28;20216;-75
2023/06/27 10:15:07;;;;;;;4.85;2.58;;;31.40;1.00;;;;;;5029093;28;20205;-76
2023/06/27 10:17:33;;;;;;;9.77;2.70;;;31.00;1.00;;;;;;5030253;28;20679;-77
2023/06/27 10:19:59;;;;;;;6.13;2.47;;;30.70;1.00;;;;;;5029778;28;20239;-76
2023/06/27 10:22:29;;;;;;;4.68;2.30;;;30.40;1.00;;;;;;5029842;28;20544;-77
2023/06/27 10:25:03;;;;;;;7.32;2.90;;;29.90;1.00;;;;;;5030013;28;20288;-76
2023/06/27 10:27:32;;;;;;;8.45;2.50;;;29.80;1.00;;;;;;5028559;28;20193;-74
2023/06/27 10:30:01;;;;;;;4.93;2.50;;;29.50;1.00;;;;;;5029353;28;20220;-75
2023/06/27 10:32:39;;;;;;;9.00;2.58;;;29.10;1.00;;;;;;5025150;28;20275;-74
2023/06/27 10:35:10;;;;;;;6.03;2.90;;;29.20;1.00;;;;;;5025724;28;20211;-77
2023/06/27 10:37:39;;;;;;;6.00;2.40;;;29.50;1.00;;;;;;5025370;28;20209;-78
2023/06/27 10:40:05;;;;;;;9.07;2.45;;;29.70;1.00;;;;;;5030607;28;20189;-78
2023/06/27 10:42:31;;;;;;;9.25;2.45;;;29.20;1.00;;;;;;5024171;28;20189;-76
2023/06/27 10:45:10;;;;;;;7.13;2.53;;;29.00;1.00;;;;;;5029614;28;20235;-76
2023/06/27 10:47:39;;;;;;;6.37;2.87;;;28.60;1.00;;;;;;5028064;28;20212;-75
2023/06/27 10:50:10;;;;;;;6.05;2.92;;;29.20;1.00;;;;;;5028251;28;20192;-77
2023/06/27 10:52:36;;;;;;;6.93;2.33;;;29.70;1.00;;;;;;5030615;28;20196;-75
2023/06/27 10:55:22;;;;;;;5.53;2.72;;;29.80;1.00;;;;;;5030343;28;20229;-75
2023/06/27 10:57:49;;;;;;;5.20;2.33;;;29.90;1.00;;;;;;5025809;28;20225;-75
2023/06/27 11:00:26;;;;;;;5.80;2.55;;;29.40;1.00;;;;;;5028943;28;20181;-75
2023/06/27 11:02:54;;;;;;;10.20;2.83;;;29.10;1.00;;;;;;5029315;28;20184;-76
2023/06/27 11:05:36;;;;;;;6.38;2.78;;;28.70;1.00;;;;;;5028775;28;20186;-76
2023/06/27 11:08:02;;;;;;;6.30;2.73;;;29.10;1.00;;;;;;5025907;28;20738;-75
2023/06/27 11:10:29;;;;;;;4.32;2.35;;;29.80;1.00;;;;;;5029722;28;20243;-76
2023/06/27 11:13:14;;;;;;;8.35;2.97;;;31.40;1.00;;;;;;5024803;28;21116;-74
2023/06/27 11:15:45;;;;;;;5.03;2.42;;;31.50;1.00;;;;;;5027154;28;20181;-76
2023/06/27 11:18:15;;;;;;;4.70;2.40;;;31.80;1.00;;;;;;5028415;28;20637;-78
2023/06/27 11:20:41;;;;;;;5.85;2.45;;;31.70;1.00;;;;;;5026013;28;20181;-78
2023/06/27 11:23:06;;;;;;;5.78;2.60;;;30.40;1.00;;;;;;5027365;28;20177;-75
2023/06/27 11:25:42;;;;;;;6.10;2.45;;;30.30;1.00;;;;;;5029067;28;20191;-76
2023/06/27 11:28:08;;;;;;;3.67;2.05;;;30.00;1.00;;;;;;5027609;28;20943;-74
2023/06/27 11:30:35;;;;;;;5.85;2.60;;;30.00;1.00;;;;;;5028838;28;20675;-75
2023/06/27 11:33:02;;;;;;;5.88;2.78;;;30.40;1.00;;;;;;5024656;28;20196;-75
2023/06/27 11:35:30;;;;;;;7.13;2.90;;;30.40;1.00;;;;;;5031856;28;20185;-76
2023/06/27 11:37:56;;;;;;;6.32;2.63;;;29.50;1.00;;;;;;5022980;28;20255;-75
2023/06/27 11:40:23;;;;;;;7.13;2.78;;;28.90;1.00;;;;;;5031710;28;20185;-74
2023/06/27 11:42:49;;;;;;;4.17;2.30;;;28.70;1.00;;;;;;5031410;28;20276;-75
2023/06/27 11:45:14;;;;;;;6.53;2.58;;;28.80;1.00;;;;;;5030727;28;20300;-74
2023/06/27 11:47:40;;;;;;;6.63;2.57;;;29.10;1.00;;;;;;5031353;28;20577;-74
2023/06/27 11:50:11;;;;;;;8.63;2.97;;;29.70;1.00;;;;;;5031284;28;20624;-76
2023/06/27 11:52:37;;;;;;;4.95;2.55;;;29.70;1.00;;;;;;5031054;28;20280;-75
2023/06/27 11:55:05;;;;;;;6.40;2.60;;;29.60;1.00;;;;;;5031315;28;20615;-75
2023/06/27 11:57:51;;;;;;;4.68;2.78;;;29.00;1.00;;;;;;5029741;28;20217;-75
2023/06/27 12:00:19;;;;;;;6.20;2.72;;;28.80;1.00;;;;;;5023368;28;20173;-74
2023/06/27 12:02:52;;;;;;;6.22;2.95;;;29.30;1.00;;;;;;5031091;28;20215;-75
2023/06/27 12:05:19;;;;;;;4.97;2.67;;;30.10;1.00;;;;;;5029688;28;20764;-74
2023/06/27 12:08:07;;;;;;;5.25;2.53;;;30.70;1.00;;;;;;5031097;28;20200;-75
2023/06/27 12:10:35;;;;;;;5.70;2.35;;;30.30;1.00;;;;;;5031074;28;20970;-76
2023/06/27 12:13:02;;;;;;;4.10;2.50;;;30.80;1.00;;;;;;5029187;28;20205;-76
2023/06/27 12:15:28;;;;;;;6.50;2.40;;;30.80;1.00;;;;;;5031148;28;20264;-75
2023/06/27 12:18:01;;;;;;;6.53;2.40;;;30.70;1.00;;;;;;5030381;28;20387;-75
2023/06/27 12:20:40;;;;;;;5.63;2.47;;;30.60;1.00;;;;;;5031407;28;20239;-75
2023/06/27 12:23:07;;;;;;;7.28;2.38;;;31.10;1.00;;;;;;5030409;28;20181;-75
2023/06/27 12:25:32;;;;;;;5.13;2.53;;;31.20;1.00;;;;;;5031242;28;20178;-76
2023/06/27 12:27:58;;;;;;;7.65;2.60;;;32.80;1.00;;;;;;5030353;28;20195;-76
2023/06/27 12:30:23;;;;;;;4.35;2.50;;;33.40;1.00;;;;;;5030075;28;20714;-75
2023/06/27 12:32:49;;;;;;;5.07;2.42;;;33.00;1.00;;;;;;5025521;28;20243;-75
2023/06/27 12:35:17;;;;;;;5.05;2.90;;;32.20;1.00;;;;;;5030451;28;20201;-76
2023/06/27 12:37:44;;;;;;;5.45;2.58;;;31.40;1.00;;;;;;5030626;28;20223;-75
2023/06/27 12:40:11;;;;;;;5.55;2.47;;;31.80;1.00;;;;;;5027986;28;20181;-75
2023/06/27 12:42:36;;;;;;;10.15;2.72;;;32.30;1.00;;;;;;5024818;28;20284;-76
2023/06/27 12:45:02;;;;;;;6.72;2.53;;;32.60;1.00;;;;;;5029876;28;20220;-75
2023/06/27 12:47:28;;;;;;;4.20;2.40;;;32.70;1.00;;;;;;5030297;28;20228;-76
2023/06/27 12:49:53;;;;;;;5.43;2.38;;;31.50;1.00;;;;;;5030224;28;20196;-74
2023/06/27 12:52:19;;;;;;;6.35;2.60;;;30.70;1.00;;;;;;5030165;28;20236;-74
2023/06/27 12:54:44;;;;;;;4.20;2.50;;;30.30;1.00;;;;;;5030582;28;20204;-74
2023/06/27 12:57:10;;;;;;;3.78;2.40;;;29.80;1.00;;;;;;5026494;28;20209;-75